sensor_id;sensor_type;location;lat;lon;timestamp;pressure;altitude;pressure_sealevel;temperature;humidity
5238;BME280;2639;49.700;7.962;2023-07-09T06:19:23;99187.06;;;19.66;100.00
5238;BME280;2639;49.700;7.962;2023-07-09T06:20:25;99185.50;;;19.69;100.00
5238;BME280;2639;49.700;7.962;2023-07-09T06:21:27;99181.47;;;19.76;100.00
5238;BME280;2639;49.700;7.962;2023-07-09T06:22:30;99177.34;;;19.81;100.00
5238;BME280;2639;49.700;7.962;2023-07-09T06:23:32;99187.16;;;19.87;100.00
5238;BME280;2639;49.700;7.962;2023-07-09T06:24:34;99188.25;;;19.92;100.00
5238;BME280;2639;49.700;7.962;2023-07-09T06:25:38;99178.91;;;19.97;100.00
5238;BME280;2639;49.700;7.962;2023-07-09T06:26:40;99180.88;;;20.03;100.00
5238;BME280;2639;49.700;7.962;2023-07-09T06:27:42;99182.81;;;20.07;100.00
5238;BME280;2639;49.700;7.962;2023-07-09T06:28:45;99184.75;;;20.11;100.00
5238;BME280;2639;49.700;7.962;2023-07-09T06:29:46;99180.63;;;20.16;100.00
5238;BME280;2639;49.700;7.962;2023-07-09T06:30:50;99180.88;;;20.22;100.00
5238;BME280;2639;49.700;7.962;2023-07-09T06:31:52;99176.75;;;20.27;100.00
5238;BME280;2639;49.700;7.962;2023-07-09T06:32:54;99170.91;;;20.33;100.00
5238;BME280;2639;49.700;7.962;2023-07-09T06:33:56;99180.78;;;20.40;100.00
5238;BME280;2639;49.700;7.962;2023-07-09T06:35:00;99183.59;;;20.45;100.00
5238;BME280;2639;49.700;7.962;2023-07-09T06:36:03;99177.75;;;20.50;100.00
5238;BME280;2639;49.700;7.962;2023-07-09T06:37:06;99181.53;;;20.57;100.00
5238;BME280;2639;49.700;7.962;2023-07-09T06:38:08;99181.78;;;20.63;100.00
5238;BME280;2639;49.700;7.962;2023-07-09T06:39:10;99175.84;;;20.67;100.00
5238;BME280;2639;49.700;7.962;2023-07-09T06:40:12;99177.88;;;20.74;100.00
5238;BME280;2639;49.700;7.962;2023-07-09T06:41:16;99182.50;;;20.80;100.00
5238;BME280;2639;49.700;7.962;2023-07-09T06:42:19;99181.91;;;20.87;100.00
5238;BME280;2639;49.700;7.962;2023-07-09T06:43:31;99177.94;;;20.97;100.00
5238;BME280;2639;49.700;7.962;2023-07-09T06:44:33;99181.78;;;21.05;100.00
5238;BME280;2639;49.700;7.962;2023-07-09T06:45:36;99183.78;;;21.12;100.00
5238;BME280;2639;49.700;7.962;2023-07-09T06:46:38;99183.91;;;21.15;100.00
5238;BME280;2639;49.700;7.962;2023-07-09T06:47:40;99177.13;;;21.20;100.00
5238;BME280;2639;49.700;7.962;2023-07-09T06:48:43;99180.81;;;21.26;100.00
5238;BME280;2639;49.700;7.962;2023-07-09T06:49:45;99180.09;;;21.30;100.00
5238;BME280;2639;49.700;7.962;2023-07-09T06:50:49;99176.72;;;21.32;100.00
5238;BME280;2639;49.700;7.962;2023-07-09T06:51:51;99181.31;;;21.38;100.00
5238;BME280;2639;49.700;7.962;2023-07-09T06:52:54;99178.00;;;21.42;100.00
5238;BME280;2639;49.700;7.962;2023-07-09T06:53:55;99171.25;;;21.47;100.00
5238;BME280;2639;49.700;7.962;2023-07-09T06:55:00;99169.81;;;21.55;100.00
5238;BME280;2639;49.700;7.962;2023-07-09T06:56:03;99173.47;;;21.60;100.00
5238;BME280;2639;49.700;7.962;2023-07-09T06:57:06;99170.28;;;21.68;100.00
5238;BME280;2639;49.700;7.962;2023-07-09T06:58:08;99175.72;;;21.74;100.00
5238;BME280;2639;49.700;7.962;2023-07-09T06:59:09;99165.50;;;21.80;100.00
5238;BME280;2639;49.700;7.962;2023-07-09T07:00:13;99163.94;;;21.85;100.00
5238;BME280;2639;49.700;7.962;2023-07-09T07:01:15;99168.47;;;21.91;100.00
5238;BME280;2639;49.700;7.962;2023-07-09T07:02:21;99169.59;;;21.97;100.00
5238;BME280;2639;49.700;7.962;2023-07-09T07:03:24;99165.44;;;22.02;100.00
5238;BME280;2639;49.700;7.962;2023-07-09T07:04:27;99167.31;;;22.06;100.00
5238;BME280;2639;49.700;7.962;2023-07-09T07:05:28;99164.94;;;22.13;100.00
5238;BME280;2639;49.700;7.962;2023-07-09T07:06:34;99166.81;;;22.17;100.00
5238;BME280;2639;49.700;7.962;2023-07-09T07:07:36;99167.03;;;22.21;100.00
5238;BME280;2639;49.700;7.962;2023-07-09T07:08:39;99169.66;;;22.23;100.00
5238;BME280;2639;49.700;7.962;2023-07-09T07:09:40;99163.72;;;22.27;100.00
5238;BME280;2639;49.700;7.962;2023-07-09T07:10:43;99168.22;;;22.31;100.00
5238;BME280;2639;49.700;7.962;2023-07-09T07:11:45;99170.13;;;22.35;100.00
5238;BME280;2639;49.700;7.962;2023-07-09T07:12:48;99172.91;;;22.41;100.00
5238;BME280;2639;49.700;7.962;2023-07-09T07:13:50;99165.34;;;22.49;100.00
5238;BME280;2639;49.700;7.962;2023-07-09T07:14:54;99163.81;;;22.56;100.00
5238;BME280;2639;49.700;7.962;2023-07-09T07:15:56;99168.31;;;22.60;100.00
5238;BME280;2639;49.700;7.962;2023-07-09T07:16:59;99165.06;;;22.67;100.00
5238;BME280;2639;49.700;7.962;2023-07-09T07:18:01;99159.09;;;22.71;100.00
5238;BME280;2639;49.700;7.962;2023-07-09T07:19:03;99167.25;;;22.80;100.00
5238;BME280;2639;49.700;7.962;2023-07-09T07:20:07;99167.47;;;22.86;100.00
5238;BME280;2639;49.700;7.962;2023-07-09T07:21:10;99160.63;;;22.92;100.00
5238;BME280;2639;49.700;7.962;2023-07-09T07:22:13;99161.66;;;22.97;100.00
5238;BME280;2639;49.700;7.962;2023-07-09T07:23:16;99160.09;;;23.00;100.00
5238;BME280;2639;49.700;7.962;2023-07-09T07:24:18;99156.69;;;23.04;100.00
5238;BME280;2639;49.700;7.962;2023-07-09T07:25:21;99159.47;;;23.09;100.00
5238;BME280;2639;49.700;7.962;2023-07-09T07:26:23;99153.59;;;23.16;100.00
5238;BME280;2639;49.700;7.962;2023-07-09T07:27:26;99156.38;;;23.22;100.00
5238;BME280;2639;49.700;7.962;2023-07-09T07:28:28;99153.97;;;23.28;100.00
5238;BME280;2639;49.700;7.962;2023-07-09T07:29:31;99160.31;;;23.37;100.00
5238;BME280;2639;49.700;7.962;2023-07-09T07:30:32;99148.25;;;23.42;100.00
5238;BME280;2639;49.700;7.962;2023-07-09T07:31:35;99152.78;;;23.47;100.00
5238;BME280;2639;49.700;7.962;2023-07-09T07:32:38;99156.56;;;23.57;100.00
5238;BME280;2639;49.700;7.962;2023-07-09T07:33:44;99153.25;;;23.63;100.00
5238;BME280;2639;49.700;7.962;2023-07-09T07:34:46;99157.78;;;23.68;100.00
5238;BME280;2639;49.700;7.962;2023-07-09T07:35:49;99152.81;;;23.78;100.00
5238;BME280;2639;49.700;7.962;2023-07-09T07:37:11;99151.41;;;23.89;100.00
5238;BME280;2639;49.700;7.962;2023-07-09T07:38:15;99144.59;;;23.97;100.00
5238;BME280;2639;49.700;7.962;2023-07-09T07:39:16;99146.56;;;24.04;100.00
5238;BME280;2639;49.700;7.962;2023-07-09T07:40:19;99148.59;;;24.14;100.00
5238;BME280;2639;49.700;7.962;2023-07-09T07:41:21;99140.16;;;24.26;100.00
5238;BME280;2639;49.700;7.962;2023-07-09T07:42:24;99138.59;;;24.33;100.00
5238;BME280;2639;49.700;7.962;2023-07-09T07:43:25;99143.16;;;24.40;100.00
5238;BME280;2639;49.700;7.962;2023-07-09T07:44:28;99141.59;;;24.47;100.00
5238;BME280;2639;49.700;7.962;2023-07-09T07:45:30;99146.22;;;24.57;100.00
5238;BME280;2639;49.700;7.962;2023-07-09T07:46:34;99144.81;;;24.70;100.00
5238;BME280;2639;49.700;7.962;2023-07-09T07:47:36;99152.06;;;24.80;100.00
5238;BME280;2639;49.700;7.962;2023-07-09T07:48:39;99138.22;;;24.87;100.00
5238;BME280;2639;49.700;7.962;2023-07-09T07:49:40;99138.38;;;24.93;100.00
5238;BME280;2639;49.700;7.962;2023-07-09T07:50:43;99142.03;;;25.02;100.00
5238;BME280;2639;49.700;7.962;2023-07-09T07:51:47;99140.44;;;25.07;100.00
5238;BME280;2639;49.700;7.962;2023-07-09T07:52:50;99136.94;;;25.08;100.00
5238;BME280;2639;49.700;7.962;2023-07-09T07:53:53;99132.72;;;25.14;100.00
5238;BME280;2639;49.700;7.962;2023-07-09T07:54:56;99136.47;;;25.24;100.00
5238;BME280;2639;49.700;7.962;2023-07-09T07:55:58;99132.28;;;25.32;100.00
5238;BME280;2639;49.700;7.962;2023-07-09T07:57:04;99129.66;;;25.34;99.73
5238;BME280;2639;49.700;7.962;2023-07-09T07:58:09;99131.56;;;25.39;100.00
5238;BME280;2639;49.700;7.962;2023-07-09T07:59:12;99129.13;;;25.49;100.00
5238;BME280;2639;49.700;7.962;2023-07-09T08:00:15;99124.84;;;25.54;99.42
5238;BME280;2639;49.700;7.962;2023-07-09T08:01:23;99131.06;;;25.59;97.13
5238;BME280;2639;49.700;7.962;2023-07-09T08:02:25;99134.56;;;25.58;90.61
5238;BME280;2639;49.700;7.962;2023-07-09T08:03:28;99130.28;;;25.63;89.96
5238;BME280;2639;49.700;7.962;2023-07-09T08:04:30;99138.31;;;25.69;89.50
5238;BME280;2639;49.700;7.962;2023-07-09T08:05:33;99138.44;;;25.75;87.81
5238;BME280;2639;49.700;7.962;2023-07-09T08:06:35;99135.88;;;25.80;85.69
5238;BME280;2639;49.700;7.962;2023-07-09T08:07:37;99134.34;;;25.90;88.03
5238;BME280;2639;49.700;7.962;2023-07-09T08:08:39;99133.69;;;26.00;90.72
5238;BME280;2639;49.700;7.962;2023-07-09T08:09:44;99136.47;;;26.08;90.89
5238;BME280;2639;49.700;7.962;2023-07-09T08:10:46;99134.78;;;26.11;87.07
5238;BME280;2639;49.700;7.962;2023-07-09T08:11:48;99133.06;;;26.15;85.60
5238;BME280;2639;49.700;7.962;2023-07-09T08:12:50;99131.44;;;26.21;86.46
5238;BME280;2639;49.700;7.962;2023-07-09T08:23:26;99127.13;;;26.74;76.37
5238;BME280;2639;49.700;7.962;2023-07-09T08:24:29;99121.97;;;26.81;78.02
5238;BME280;2639;49.700;7.962;2023-07-09T08:25:32;99125.59;;;26.88;78.54
5238;BME280;2639;49.700;7.962;2023-07-09T08:26:35;99127.38;;;26.91;74.65
5238;BME280;2639;49.700;7.962;2023-07-09T08:27:39;99127.44;;;26.95;73.21
5238;BME280;2639;49.700;7.962;2023-07-09T08:28:44;99131.06;;;27.03;74.53
5238;BME280;2639;49.700;7.962;2023-07-09T08:29:48;99121.50;;;27.08;72.24
5238;BME280;2639;49.700;7.962;2023-07-09T08:30:51;99128.63;;;27.16;72.85
5238;BME280;2639;49.700;7.962;2023-07-09T08:31:53;99126.97;;;27.21;71.88
5238;BME280;2639;49.700;7.962;2023-07-09T08:32:56;99127.06;;;27.27;71.05
5238;BME280;2639;49.700;7.962;2023-07-09T08:33:59;99133.31;;;27.35;72.49
5238;BME280;2639;49.700;7.962;2023-07-09T08:35:01;99125.50;;;27.41;72.69
5238;BME280;2639;49.700;7.962;2023-07-09T08:36:07;99136.97;;;27.45;71.68
5238;BME280;2639;49.700;7.962;2023-07-09T08:37:10;99129.16;;;27.53;72.48
5238;BME280;2639;49.700;7.962;2023-07-09T08:38:12;99118.69;;;27.59;70.20
5238;BME280;2639;49.700;7.962;2023-07-09T08:39:14;99118.75;;;27.65;70.78
5238;BME280;2639;49.700;7.962;2023-07-09T08:40:17;99119.72;;;27.72;72.31
5238;BME280;2639;49.700;7.962;2023-07-09T08:41:35;99114.50;;;27.76;68.82
5238;BME280;2639;49.700;7.962;2023-07-09T08:42:41;99111.91;;;27.82;69.67
5238;BME280;2639;49.700;7.962;2023-07-09T08:44:13;99115.59;;;27.94;71.34
5238;BME280;2639;49.700;7.962;2023-07-09T08:45:27;99113.94;;;28.02;69.99
5238;BME280;2639;49.700;7.962;2023-07-09T08:46:38;99112.22;;;28.07;67.28
5238;BME280;2639;49.700;7.962;2023-07-09T08:47:50;99115.84;;;28.18;69.32
5238;BME280;2639;49.700;7.962;2023-07-09T08:48:56;99117.69;;;28.25;67.48
5238;BME280;2639;49.700;7.962;2023-07-09T08:50:02;99117.75;;;28.31;66.08
5238;BME280;2639;49.700;7.962;2023-07-09T08:51:10;99120.47;;;28.42;65.91
5238;BME280;2639;49.700;7.962;2023-07-09T08:52:20;99125.88;;;28.51;65.74
5238;BME280;2639;49.700;7.962;2023-07-09T08:53:31;99125.06;;;28.60;65.83
5238;BME280;2639;49.700;7.962;2023-07-09T08:54:36;99123.34;;;28.65;67.18
5238;BME280;2639;49.700;7.962;2023-07-09T08:55:40;99124.31;;;28.73;67.72
5238;BME280;2639;49.700;7.962;2023-07-09T08:56:46;99121.69;;;28.80;66.23
5238;BME280;2639;49.700;7.962;2023-07-09T08:57:52;99123.50;;;28.85;63.76
5238;BME280;2639;49.700;7.962;2023-07-09T08:58:58;99121.78;;;28.90;62.32
5238;BME280;2639;49.700;7.962;2023-07-09T09:00:10;99110.38;;;28.94;61.59
5238;BME280;2639;49.700;7.962;2023-07-09T09:01:18;99111.25;;;28.98;61.73
5238;BME280;2639;49.700;7.962;2023-07-09T09:02:31;99110.38;;;28.99;60.10
5238;BME280;2639;49.700;7.962;2023-07-09T09:03:37;99111.28;;;29.01;60.49
5238;BME280;2639;49.700;7.962;2023-07-09T09:04:42;99111.34;;;29.07;59.84
5238;BME280;2639;49.700;7.962;2023-07-09T09:05:47;99107.84;;;29.11;59.83
5238;BME280;2639;49.700;7.962;2023-07-09T09:06:57;99111.41;;;29.16;60.61
5238;BME280;2639;49.700;7.962;2023-07-09T09:08:10;99108.78;;;29.20;60.41
5238;BME280;2639;49.700;7.962;2023-07-09T09:09:20;99106.16;;;29.29;61.16
5238;BME280;2639;49.700;7.962;2023-07-09T09:10:29;99104.47;;;29.37;60.18
5238;BME280;2639;49.700;7.962;2023-07-09T09:11:42;99106.25;;;29.44;61.14
5238;BME280;2639;49.700;7.962;2023-07-09T09:12:56;99099.25;;;29.60;59.97
5238;BME280;2639;49.700;7.962;2023-07-09T09:14:05;99102.81;;;29.67;59.78
5238;BME280;2639;49.700;7.962;2023-07-09T09:15:14;99095.81;;;29.75;59.87
5238;BME280;2639;49.700;7.962;2023-07-09T09:16:25;99094.97;;;29.81;60.43
5238;BME280;2639;49.700;7.962;2023-07-09T09:17:38;99102.91;;;29.91;60.77
5238;BME280;2639;49.700;7.962;2023-07-09T09:18:43;99099.38;;;29.98;58.98
5238;BME280;2639;49.700;7.962;2023-07-09T09:19:50;99095.03;;;30.08;58.82
5238;BME280;2639;49.700;7.962;2023-07-09T09:21:03;99103.84;;;30.12;58.33
5238;BME280;2639;49.700;7.962;2023-07-09T09:22:11;99097.69;;;30.22;56.88
5238;BME280;2639;49.700;7.962;2023-07-09T09:23:15;99099.50;;;30.29;57.83
5238;BME280;2639;49.700;7.962;2023-07-09T09:24:20;99092.41;;;30.37;58.01
5238;BME280;2639;49.700;7.962;2023-07-09T09:25:27;99095.94;;;30.42;57.42
5238;BME280;2639;49.700;7.962;2023-07-09T09:26:33;99100.38;;;30.48;57.73
5238;BME280;2639;49.700;7.962;2023-07-09T09:27:38;99095.06;;;30.56;57.65
5238;BME280;2639;49.700;7.962;2023-07-09T09:28:41;99101.25;;;30.67;56.52
5238;BME280;2639;49.700;7.962;2023-07-09T09:29:44;99099.50;;;30.75;56.63
5238;BME280;2639;49.700;7.962;2023-07-09T09:30:46;99106.56;;;30.86;56.51
5238;BME280;2639;49.700;7.962;2023-07-09T09:31:51;99103.03;;;30.90;56.29
5238;BME280;2639;49.700;7.962;2023-07-09T09:32:56;99106.56;;;30.92;55.42
5238;BME280;2639;49.700;7.962;2023-07-09T09:33:59;99102.13;;;31.04;54.68
5238;BME280;2639;49.700;7.962;2023-07-09T09:35:11;99102.97;;;31.20;53.44
5238;BME280;2639;49.700;7.962;2023-07-09T09:36:16;99096.75;;;31.28;53.76
5238;BME280;2639;49.700;7.962;2023-07-09T09:37:26;99098.50;;;31.35;53.05
5238;BME280;2639;49.700;7.962;2023-07-09T09:38:30;99095.84;;;31.44;54.88
5238;BME280;2639;49.700;7.962;2023-07-09T09:39:31;99095.78;;;31.56;54.67
5238;BME280;2639;49.700;7.962;2023-07-09T09:40:35;99093.97;;;31.67;53.77
5238;BME280;2639;49.700;7.962;2023-07-09T09:41:38;99093.94;;;31.75;52.05
5238;BME280;2639;49.700;7.962;2023-07-09T09:42:40;99096.56;;;31.84;53.08
5238;BME280;2639;49.700;7.962;2023-07-09T09:43:46;99091.22;;;31.89;51.57
5238;BME280;2639;49.700;7.962;2023-07-09T09:44:48;99088.53;;;31.91;52.11
5238;BME280;2639;49.700;7.962;2023-07-09T09:45:52;99088.53;;;31.98;49.75
5238;BME280;2639;49.700;7.962;2023-07-09T09:46:56;99089.31;;;32.10;49.30
5238;BME280;2639;49.700;7.962;2023-07-09T09:48:13;99083.06;;;32.20;50.01
5238;BME280;2639;49.700;7.962;2023-07-09T09:49:15;99091.03;;;32.21;50.33
5238;BME280;2639;49.700;7.962;2023-07-09T09:50:20;99090.13;;;32.21;49.79
5238;BME280;2639;49.700;7.962;2023-07-09T09:51:23;99090.97;;;32.26;49.19
5238;BME280;2639;49.700;7.962;2023-07-09T09:52:29;99083.88;;;32.31;47.10
5238;BME280;2639;49.700;7.962;2023-07-09T09:53:37;99075.91;;;32.31;48.07
5238;BME280;2639;49.700;7.962;2023-07-09T09:54:45;99077.59;;;32.35;49.31
5238;BME280;2639;49.700;7.962;2023-07-09T09:55:48;99075.81;;;32.37;48.96
5238;BME280;2639;49.700;7.962;2023-07-09T09:56:52;99081.13;;;32.39;48.61
5238;BME280;2639;49.700;7.962;2023-07-09T09:57:55;99075.78;;;32.43;49.31
5238;BME280;2639;49.700;7.962;2023-07-09T09:59:00;99079.31;;;32.52;49.18
5238;BME280;2639;49.700;7.962;2023-07-09T10:00:03;99072.16;;;32.54;48.48
5238;BME280;2639;49.700;7.962;2023-07-09T10:01:14;99080.09;;;32.58;48.68
5238;BME280;2639;49.700;7.962;2023-07-09T10:02:18;99068.50;;;32.67;48.97
5238;BME280;2639;49.700;7.962;2023-07-09T10:03:32;99070.22;;;32.74;48.95
5238;BME280;2639;49.700;7.962;2023-07-09T10:04:34;99070.13;;;32.83;48.05
5238;BME280;2639;49.700;7.962;2023-07-09T10:05:42;99068.38;;;32.79;47.07
5238;BME280;2639;49.700;7.962;2023-07-09T10:06:49;99064.88;;;32.77;46.57
5238;BME280;2639;49.700;7.962;2023-07-09T10:07:59;99071.91;;;32.81;49.54
5238;BME280;2639;49.700;7.962;2023-07-09T10:09:05;99063.91;;;32.84;49.48
5238;BME280;2639;49.700;7.962;2023-07-09T10:10:13;99062.91;;;32.95;47.52
5238;BME280;2639;49.700;7.962;2023-07-09T10:11:18;99057.53;;;33.01;47.69
5238;BME280;2639;49.700;7.962;2023-07-09T10:12:34;99062.81;;;33.07;48.96
5238;BME280;2639;49.700;7.962;2023-07-09T10:13:43;99059.22;;;33.11;50.15
5238;BME280;2639;49.700;7.962;2023-07-09T10:14:51;99065.31;;;33.22;47.84
5238;BME280;2639;49.700;7.962;2023-07-09T10:16:03;99054.53;;;33.33;47.49
5238;BME280;2639;49.700;7.962;2023-07-09T10:17:18;99051.94;;;33.28;44.59
5238;BME280;2639;49.700;7.962;2023-07-09T10:18:29;99058.91;;;33.37;45.46
5238;BME280;2639;49.700;7.962;2023-07-09T10:19:39;99060.63;;;33.40;45.14
5238;BME280;2639;49.700;7.962;2023-07-09T10:20:47;99053.38;;;33.51;45.95
5238;BME280;2639;49.700;7.962;2023-07-09T10:21:57;99055.97;;;33.62;45.24
5238;BME280;2639;49.700;7.962;2023-07-09T10:23:07;99055.97;;;33.62;46.95
5238;BME280;2639;49.700;7.962;2023-07-09T10:24:26;99053.31;;;33.60;45.60
5238;BME280;2639;49.700;7.962;2023-07-09T10:25:40;99057.69;;;33.64;46.55
5238;BME280;2639;49.700;7.962;2023-07-09T10:26:49;99052.25;;;33.73;46.48
5238;BME280;2639;49.700;7.962;2023-07-09T10:28:04;99052.16;;;33.78;45.47
5238;BME280;2639;49.700;7.962;2023-07-09T10:29:28;99055.69;;;33.80;44.45
5238;BME280;2639;49.700;7.962;2023-07-09T10:30:44;99046.00;;;33.74;45.27
5238;BME280;2639;49.700;7.962;2023-07-09T10:31:58;99049.63;;;33.70;44.25
5238;BME280;2639;49.700;7.962;2023-07-09T10:33:08;99053.16;;;33.72;45.24
5238;BME280;2639;49.700;7.962;2023-07-09T10:34:20;99049.53;;;33.77;45.12
5238;BME280;2639;49.700;7.962;2023-07-09T10:35:32;99051.38;;;33.73;45.31
5238;BME280;2639;49.700;7.962;2023-07-09T10:36:50;99051.44;;;33.68;45.00
5238;BME280;2639;49.700;7.962;2023-07-09T10:38:10;99055.75;;;33.76;44.28
5238;BME280;2639;49.700;7.962;2023-07-09T10:39:20;99041.44;;;33.84;43.14
5238;BME280;2639;49.700;7.962;2023-07-09T10:40:30;99040.44;;;33.90;43.77
5238;BME280;2639;49.700;7.962;2023-07-09T10:41:34;99049.31;;;33.92;44.35
5238;BME280;2639;49.700;7.962;2023-07-09T10:42:48;99050.09;;;34.00;44.82
5238;BME280;2639;49.700;7.962;2023-07-09T10:43:57;99040.22;;;34.05;46.09
5238;BME280;2639;49.700;7.962;2023-07-09T10:45:03;99049.09;;;34.07;43.97
5238;BME280;2639;49.700;7.962;2023-07-09T10:46:13;99049.97;;;34.08;44.22
5238;BME280;2639;49.700;7.962;2023-07-09T10:47:25;99046.44;;;34.06;44.12
5238;BME280;2639;49.700;7.962;2023-07-09T10:48:34;99044.63;;;34.08;44.09
5238;BME280;2639;49.700;7.962;2023-07-09T10:49:40;99043.72;;;34.09;43.44
5238;BME280;2639;49.700;7.962;2023-07-09T10:50:47;99048.91;;;34.20;44.18
5238;BME280;2639;49.700;7.962;2023-07-09T10:51:52;99052.44;;;34.22;43.77
5238;BME280;2639;49.700;7.962;2023-07-09T10:53:02;99051.56;;;34.20;42.48
5238;BME280;2639;49.700;7.962;2023-07-09T10:54:14;99056.09;;;34.14;43.40
5238;BME280;2639;49.700;7.962;2023-07-09T10:55:28;99050.78;;;34.14;43.08
5238;BME280;2639;49.700;7.962;2023-07-09T10:56:34;99056.97;;;34.15;42.98
5238;BME280;2639;49.700;7.962;2023-07-09T10:57:43;99042.78;;;34.14;44.36
5238;BME280;2639;49.700;7.962;2023-07-09T10:58:53;99054.34;;;34.13;42.87
5238;BME280;2639;49.700;7.962;2023-07-09T10:59:57;99049.09;;;34.04;43.96
5238;BME280;2639;49.700;7.962;2023-07-09T11:01:00;99047.38;;;34.03;43.85
5238;BME280;2639;49.700;7.962;2023-07-09T11:02:16;99047.38;;;34.03;44.58
5238;BME280;2639;49.700;7.962;2023-07-09T11:03:33;99049.19;;;34.00;43.40
5238;BME280;2639;49.700;7.962;2023-07-09T11:04:43;99051.81;;;34.03;43.28
5238;BME280;2639;49.700;7.962;2023-07-09T11:05:48;99047.38;;;34.03;42.69
5238;BME280;2639;49.700;7.962;2023-07-09T11:06:53;99049.09;;;34.07;42.63
5238;BME280;2639;49.700;7.962;2023-07-09T11:08:00;99041.09;;;34.06;42.71
5238;BME280;2639;49.700;7.962;2023-07-09T11:09:22;99051.66;;;34.15;43.37
5238;BME280;2639;49.700;7.962;2023-07-09T11:10:29;99046.16;;;34.24;41.43
5238;BME280;2639;49.700;7.962;2023-07-09T11:11:36;99042.63;;;34.24;41.37
5238;BME280;2639;49.700;7.962;2023-07-09T11:12:43;99040.91;;;34.20;40.66
5238;BME280;2639;49.700;7.962;2023-07-09T11:13:51;99045.38;;;34.18;40.82
5238;BME280;2639;49.700;7.962;2023-07-09T11:14:57;99043.53;;;34.23;42.30
5238;BME280;2639;49.700;7.962;2023-07-09T11:16:02;99043.53;;;34.23;41.23
5238;BME280;2639;49.700;7.962;2023-07-09T11:17:11;99046.94;;;34.31;42.17
5238;BME280;2639;49.700;7.962;2023-07-09T11:18:20;99034.63;;;34.24;40.15
5238;BME280;2639;49.700;7.962;2023-07-09T11:19:23;99033.72;;;34.25;41.22
5238;BME280;2639;49.700;7.962;2023-07-09T11:20:32;99032.69;;;34.32;41.70
5238;BME280;2639;49.700;7.962;2023-07-09T11:21:40;99026.28;;;34.44;42.25
5238;BME280;2639;49.700;7.962;2023-07-09T11:22:52;99033.16;;;34.55;41.89
5238;BME280;2639;49.700;7.962;2023-07-09T11:23:56;99033.03;;;34.65;41.00
5238;BME280;2639;49.700;7.962;2023-07-09T11:25:07;99029.34;;;34.73;39.72
5238;BME280;2639;49.700;7.962;2023-07-09T11:26:12;99033.63;;;34.82;39.77
5238;BME280;2639;49.700;7.962;2023-07-09T11:27:19;99039.03;;;34.79;38.56
5238;BME280;2639;49.700;7.962;2023-07-09T11:28:33;99029.34;;;34.73;38.23
5238;BME280;2639;49.700;7.962;2023-07-09T11:29:45;99031.84;;;34.81;38.75
5238;BME280;2639;49.700;7.962;2023-07-09T11:30:49;99033.69;;;34.79;37.77
5238;BME280;2639;49.700;7.962;2023-07-09T11:31:52;99027.59;;;34.72;38.09
5238;BME280;2639;49.700;7.962;2023-07-09T11:33:00;99033.69;;;34.79;37.92
5238;BME280;2639;49.700;7.962;2023-07-09T11:34:27;99021.25;;;34.78;36.99
5238;BME280;2639;49.700;7.962;2023-07-09T11:35:45;99023.84;;;34.81;37.40
5238;BME280;2639;49.700;7.962;2023-07-09T11:36:50;99033.56;;;34.85;38.02
5238;BME280;2639;49.700;7.962;2023-07-09T11:37:53;99029.13;;;34.84;38.30
5238;BME280;2639;49.700;7.962;2023-07-09T11:38:57;99028.22;;;34.85;38.04
5238;BME280;2639;49.700;7.962;2023-07-09T11:40:06;99032.56;;;34.91;38.33
5238;BME280;2639;49.700;7.962;2023-07-09T11:41:26;99039.63;;;34.93;37.82
5238;BME280;2639;49.700;7.962;2023-07-09T11:42:30;99033.38;;;34.94;37.05
5238;BME280;2639;49.700;7.962;2023-07-09T11:43:35;99028.88;;;34.96;37.29
5238;BME280;2639;49.700;7.962;2023-07-09T11:44:49;99035.09;;;34.98;37.75
5238;BME280;2639;49.700;7.962;2023-07-09T11:45:54;99027.31;;;34.86;37.31
5238;BME280;2639;49.700;7.962;2023-07-09T11:47:19;99028.16;;;34.88;38.36
5238;BME280;2639;49.700;7.962;2023-07-09T11:48:26;99035.44;;;34.80;37.49
5238;BME280;2639;49.700;7.962;2023-07-09T11:49:32;99037.31;;;34.75;38.20
5238;BME280;2639;49.700;7.962;2023-07-09T11:50:40;99034.66;;;34.73;38.02
5238;BME280;2639;49.700;7.962;2023-07-09T11:51:45;99030.19;;;34.74;38.16
5238;BME280;2639;49.700;7.962;2023-07-09T11:52:55;99033.72;;;34.76;37.43
5238;BME280;2639;49.700;7.962;2023-07-09T11:53:58;99020.38;;;34.77;37.03
5238;BME280;2639;49.700;7.962;2023-07-09T11:55:03;99027.50;;;34.75;39.31
5238;BME280;2639;49.700;7.962;2023-07-09T11:56:19;99020.44;;;34.74;37.37
5238;BME280;2639;49.700;7.962;2023-07-09T11:57:22;99023.97;;;34.75;37.94
5238;BME280;2639;49.700;7.962;2023-07-09T11:58:24;99019.50;;;34.77;39.11
5238;BME280;2639;49.700;7.962;2023-07-09T11:59:28;99019.44;;;34.80;38.40
5238;BME280;2639;49.700;7.962;2023-07-09T12:00:37;99017.59;;;34.82;38.01
5238;BME280;2639;49.700;7.962;2023-07-09T12:01:43;99016.69;;;34.83;37.97
5238;BME280;2639;49.700;7.962;2023-07-09T12:02:46;99022.94;;;34.82;38.57
5238;BME280;2639;49.700;7.962;2023-07-09T12:03:51;99015.84;;;34.81;40.10
5238;BME280;2639;49.700;7.962;2023-07-09T12:04:53;99011.41;;;34.80;37.45
5238;BME280;2639;49.700;7.962;2023-07-09T12:06:00;99006.09;;;34.80;37.68
5238;BME280;2639;49.700;7.962;2023-07-09T12:07:03;99011.41;;;34.82;38.67
5238;BME280;2639;49.700;7.962;2023-07-09T12:08:08;99013.13;;;34.84;38.82
5238;BME280;2639;49.700;7.962;2023-07-09T12:09:15;99012.97;;;34.92;38.75
5238;BME280;2639;49.700;7.962;2023-07-09T12:10:21;98999.63;;;34.90;39.58
5238;BME280;2639;49.700;7.962;2023-07-09T12:11:25;98999.63;;;34.90;38.77
5238;BME280;2639;49.700;7.962;2023-07-09T12:12:28;99003.91;;;35.01;38.66
5238;BME280;2639;49.700;7.962;2023-07-09T12:13:36;99003.06;;;34.98;37.93
5238;BME280;2639;49.700;7.962;2023-07-09T12:14:39;98999.59;;;34.93;38.47
5238;BME280;2639;49.700;7.962;2023-07-09T12:15:41;99000.38;;;35.00;38.29
5238;BME280;2639;49.700;7.962;2023-07-09T12:16:46;99002.94;;;35.05;39.47
5238;BME280;2639;49.700;7.962;2023-07-09T12:17:54;98997.44;;;35.14;38.97
5238;BME280;2639;49.700;7.962;2023-07-09T12:18:59;98993.00;;;35.11;38.90
5238;BME280;2639;49.700;7.962;2023-07-09T12:20:01;98996.44;;;35.18;40.06
5238;BME280;2639;49.700;7.962;2023-07-09T12:21:08;98996.41;;;35.19;38.34
5238;BME280;2639;49.700;7.962;2023-07-09T12:22:16;98987.44;;;35.24;38.11
5238;BME280;2639;49.700;7.962;2023-07-09T12:23:22;98992.78;;;35.24;37.99
5238;BME280;2639;49.700;7.962;2023-07-09T12:24:26;98991.09;;;35.18;38.59
5238;BME280;2639;49.700;7.962;2023-07-09T12:25:30;98985.84;;;35.15;39.25
5238;BME280;2639;49.700;7.962;2023-07-09T12:26:33;98986.75;;;35.14;38.19
5238;BME280;2639;49.700;7.962;2023-07-09T12:27:36;98984.09;;;35.14;37.58